createdAt,value
2023-03-13T06:02:46.691Z,13.32
2023-03-13T06:07:52.723Z,13.20
2023-03-13T06:10:22.838Z,17.33
2023-03-13T06:13:17.238Z,13.68
2023-03-13T06:16:01.817Z,13.20
2023-03-13T06:18:40.731Z,12.88
2023-03-13T06:21:10.908Z,13.40
2023-03-13T06:23:48.740Z,10.52
2023-03-13T06:26:18.878Z,9.20
2023-03-13T06:28:55.754Z,10.15
2023-03-13T06:31:25.895Z,10.93
2023-03-13T06:34:05.768Z,11.02
2023-03-13T06:36:35.889Z,12.65
2023-03-13T06:39:12.769Z,10.70
2023-03-13T06:41:42.889Z,9.55
2023-03-13T06:44:19.725Z,12.95
2023-03-13T06:46:49.756Z,12.68
2023-03-13T06:49:28.782Z,10.75
2023-03-13T06:52:00.916Z,11.43
2023-03-13T06:54:37.991Z,11.32
2023-03-13T06:57:08.066Z,12.93
2023-03-13T06:59:45.792Z,13.25
2023-03-13T07:02:16.265Z,14.90
2023-03-13T07:04:55.757Z,11.73
2023-03-13T07:07:32.986Z,12.75
2023-03-13T07:10:03.162Z,17.33
2023-03-13T07:12:39.761Z,16.90
2023-03-13T07:15:11.134Z,16.80
2023-03-13T07:17:47.858Z,16.40
2023-03-13T07:20:21.047Z,17.25
2023-03-13T07:23:02.785Z,16.40
2023-03-13T07:25:33.055Z,16.90
2023-03-13T07:28:09.823Z,16.55
2023-03-13T07:30:39.846Z,14.50
2023-03-13T07:33:16.819Z,13.65
2023-03-13T07:36:01.896Z,15.00
2023-03-13T07:38:32.263Z,15.98
2023-03-13T07:41:08.927Z,14.02
2023-03-13T07:43:39.058Z,15.60
2023-03-13T07:46:17.941Z,21.00
2023-03-13T07:48:48.678Z,13.45
2023-03-13T07:51:42.994Z,19.92
2023-03-13T07:54:20.901Z,17.45
2023-03-13T07:56:51.669Z,14.27
2023-03-13T07:59:27.970Z,13.75
2023-03-13T08:01:58.096Z,15.93
2023-03-13T08:04:34.906Z,12.88
2023-03-13T08:07:11.747Z,15.57
2023-03-13T08:09:48.869Z,11.85
2023-03-13T08:12:18.849Z,10.68
2023-03-13T08:14:54.864Z,11.05
2023-03-13T08:17:24.893Z,14.32
2023-03-13T08:20:01.868Z,14.30
2023-03-13T08:22:34.503Z,11.70
2023-03-13T08:25:10.868Z,10.75
2023-03-13T08:27:46.908Z,11.32
2023-03-13T08:30:18.422Z,10.88
2023-03-13T08:32:54.941Z,9.60
2023-03-13T08:35:31.976Z,12.52
2023-03-13T08:38:04.688Z,10.43
2023-03-13T08:40:40.942Z,11.40
2023-03-13T08:43:12.104Z,13.55
2023-03-13T08:45:48.990Z,10.05
2023-03-13T08:48:19.031Z,10.68
2023-03-13T08:50:55.918Z,10.40
2023-03-13T08:53:28.496Z,12.35
2023-03-13T08:56:04.954Z,9.38
2023-03-13T08:58:35.725Z,10.63
2023-03-13T09:01:13.946Z,11.05
2023-03-13T09:03:45.204Z,8.35
2023-03-13T09:06:22.045Z,9.27
2023-03-13T09:08:54.722Z,8.25
2023-03-13T09:11:32.045Z,9.38
2023-03-13T09:14:09.049Z,8.90
2023-03-13T09:16:39.457Z,10.23
2023-03-13T09:19:15.951Z,8.48
2023-03-13T09:21:46.654Z,11.65
2023-03-13T09:24:26.952Z,6.57
2023-03-13T09:27:01.332Z,10.02
2023-03-13T09:29:40.032Z,9.60
2023-03-13T09:32:12.573Z,6.43
2023-03-13T09:34:49.063Z,7.15
2023-03-13T09:37:19.172Z,8.10
2023-03-13T09:39:58.987Z,8.80
2023-03-13T09:42:40.778Z,6.68
2023-03-13T09:45:25.019Z,9.13
2023-03-13T09:48:01.395Z,7.43
2023-03-13T09:50:42.998Z,8.25
2023-03-13T09:53:22.366Z,9.77
2023-03-13T09:56:02.009Z,6.72
2023-03-13T09:58:33.304Z,7.78
2023-03-13T10:01:14.139Z,8.60
2023-03-13T10:03:57.432Z,6.10
2023-03-13T10:06:38.093Z,6.78
2023-03-13T10:09:20.538Z,6.88
2023-03-13T10:12:10.027Z,4.30
2023-03-13T10:14:49.157Z,5.88
2023-03-13T10:17:40.075Z,4.93
2023-03-13T10:20:25.877Z,7.55
2023-03-13T10:23:10.068Z,6.35
2023-03-13T10:25:49.024Z,3.67
2023-03-13T10:28:22.989Z,5.85
2023-03-13T10:31:04.203Z,4.40
2023-03-13T10:33:37.580Z,5.10
2023-03-13T10:36:18.148Z,6.30
2023-03-13T10:38:52.905Z,6.88
2023-03-13T10:41:39.130Z,6.32
2023-03-13T10:44:20.629Z,6.28
2023-03-13T10:47:00.154Z,8.85
2023-03-13T10:49:31.093Z,6.38
2023-03-13T10:52:11.084Z,9.00
2023-03-13T10:54:43.420Z,7.68
2023-03-13T10:57:40.141Z,4.75
2023-03-13T11:00:51.176Z,6.15
2023-03-13T11:03:34.154Z,6.25
2023-03-13T11:06:06.496Z,5.40
2023-03-13T11:08:47.181Z,5.80
2023-03-13T11:11:29.203Z,5.80
2023-03-13T11:14:10.359Z,5.63
2023-03-13T11:16:59.223Z,6.13
2023-03-13T11:20:09.287Z,7.90
2023-03-13T11:22:53.157Z,8.32
2023-03-13T11:25:38.209Z,5.95
2023-03-13T11:28:34.026Z,4.90
2023-03-13T11:31:19.130Z,9.50
2023-03-13T11:34:08.144Z,7.53
2023-03-13T11:36:45.951Z,8.25
2023-03-13T11:39:54.156Z,6.72
2023-03-13T11:43:21.705Z,9.35
2023-03-13T11:46:17.855Z,8.20
2023-03-13T11:49:34.184Z,8.68
2023-03-13T11:52:20.614Z,7.13
2023-03-13T11:55:27.190Z,8.73
2023-03-13T11:58:19.357Z,12.13
2023-03-13T12:01:02.311Z,12.10
2023-03-13T12:03:42.533Z,9.70
2023-03-13T12:06:34.239Z,9.27
2023-03-13T12:09:14.251Z,7.45
2023-03-13T12:12:06.261Z,7.38
2023-03-13T12:14:42.068Z,8.55
2023-03-13T12:17:25.266Z,8.77
2023-03-13T12:20:01.549Z,7.60
2023-03-13T12:22:49.228Z,8.75
2023-03-13T12:25:28.506Z,10.27
2023-03-13T12:28:14.240Z,10.80
2023-03-13T12:30:48.733Z,10.00
2023-03-13T12:33:33.243Z,9.68
2023-03-13T12:36:13.943Z,13.02
2023-03-13T12:39:02.249Z,8.90
2023-03-13T12:41:41.952Z,13.80
2023-03-13T12:44:24.220Z,14.13
2023-03-13T12:47:06.089Z,11.60
2023-03-13T12:50:30.242Z,10.40
2023-03-13T12:53:37.466Z,9.93
2023-03-13T12:56:37.223Z,13.73
2023-03-13T12:59:13.721Z,12.13
2023-03-13T13:01:53.442Z,16.35
2023-03-13T13:04:26.332Z,13.23
2023-03-13T13:07:10.255Z,11.45
2023-03-13T13:10:09.307Z,12.70
2023-03-13T13:12:43.366Z,12.93
2023-03-13T13:15:32.312Z,19.38
2023-03-13T13:18:18.908Z,14.88
2023-03-13T13:20:58.252Z,14.23
2023-03-13T13:23:42.149Z,13.57
2023-03-13T13:26:58.309Z,15.45
2023-03-13T13:30:04.606Z,11.35
2023-03-13T13:32:58.388Z,16.85
2023-03-13T13:35:32.664Z,18.27
2023-03-13T13:38:43.331Z,18.40
2023-03-13T13:41:46.265Z,20.25
2023-03-13T13:44:38.338Z,16.33
2023-03-13T13:50:06.362Z,16.92
2023-03-13T13:52:41.289Z,17.92
2023-03-13T13:55:51.386Z,16.05
2023-03-13T13:58:26.548Z,14.82
